createdAt,value
2023-02-08T00:01:18.608Z,102781.78
2023-02-08T00:03:47.357Z,102777.47
2023-02-08T00:06:17.796Z,102781.75
2023-02-08T00:08:45.991Z,102773.63
2023-02-08T00:11:14.236Z,102778.22
2023-02-08T00:13:43.808Z,102778.56
2023-02-08T00:16:13.601Z,102779.38
2023-02-08T00:18:42.169Z,102768.53
2023-02-08T00:21:11.598Z,102772.03
2023-02-08T00:23:39.905Z,102779.84
2023-02-08T00:26:08.397Z,102771.31
2023-02-08T00:28:36.776Z,102771.31
2023-02-08T00:31:06.852Z,102770.19
2023-02-08T00:33:36.194Z,102762.41
2023-02-08T00:36:07.619Z,102764.38
2023-02-08T00:38:36.275Z,102771.38
2023-02-08T00:41:05.000Z,102775.28
2023-02-08T00:43:35.800Z,102776.47
2023-02-08T00:46:04.326Z,102770.31
2023-02-08T00:48:33.840Z,102771.53
2023-02-08T00:51:03.878Z,102770.34
2023-02-08T00:53:32.457Z,102766.09
2023-02-08T00:56:00.577Z,102765.34
2023-02-08T00:58:29.313Z,102779.25
2023-02-08T01:00:57.586Z,102783.16
2023-02-08T01:03:26.013Z,102781.66
2023-02-08T01:05:55.916Z,102780.09
2023-02-08T01:08:24.414Z,102782.81
2023-02-08T01:10:53.375Z,102778.94
2023-02-08T01:13:23.399Z,102775.81
2023-02-08T01:15:51.663Z,102780.09
2023-02-08T01:18:19.722Z,102767.72
2023-02-08T01:20:48.036Z,102775.47
2023-02-08T01:23:17.553Z,102773.50
2023-02-08T01:25:45.703Z,102773.19
2023-02-08T01:28:13.959Z,102769.31
2023-02-08T01:30:42.484Z,102763.91
2023-02-08T01:33:10.836Z,102762.34
2023-02-08T01:35:39.000Z,102760.78
2023-02-08T01:38:07.104Z,102767.78
2023-02-08T01:40:36.672Z,102761.97
2023-02-08T01:43:04.808Z,102749.97
2023-02-08T01:45:33.393Z,102752.69
2023-02-08T01:48:07.606Z,102755.41
2023-02-08T01:50:46.206Z,102753.13
2023-02-08T01:53:15.167Z,102754.69
2023-02-08T01:55:48.805Z,102757.38
2023-02-08T01:58:20.056Z,102753.13
2023-02-08T02:00:49.710Z,102752.38
2023-02-08T02:03:20.538Z,102745.44
2023-02-08T02:05:52.840Z,102745.03
2023-02-08T02:08:21.227Z,102740.41
2023-02-08T02:10:50.876Z,102743.88
2023-02-08T02:13:22.181Z,102733.84
2023-02-08T02:15:51.066Z,102739.63
2023-02-08T02:18:24.811Z,102737.72
2023-02-08T02:21:28.325Z,102732.69
2023-02-08T02:24:33.156Z,102731.50
2023-02-08T02:27:27.309Z,102726.09
2023-02-08T02:30:35.251Z,102724.59
2023-02-08T02:33:27.214Z,102722.25
2023-02-08T02:36:01.297Z,102727.66
2023-02-08T02:38:42.251Z,102719.94
2023-02-08T02:41:41.351Z,102726.84
2023-02-08T02:44:18.314Z,102721.47
2023-02-08T02:46:53.793Z,102725.72
2023-02-08T02:49:27.076Z,102724.56
2023-02-08T02:51:59.829Z,102728.03
2023-02-08T02:54:34.232Z,102722.66
2023-02-08T02:57:05.733Z,102725.00
2023-02-08T02:59:35.383Z,102719.56
2023-02-08T03:02:04.313Z,102719.94
2023-02-08T03:05:04.550Z,102714.53
2023-02-08T03:07:49.539Z,102712.97
2023-02-08T03:10:31.256Z,102710.69
2023-02-08T03:13:06.113Z,102712.63
2023-02-08T03:15:41.801Z,102712.22
2023-02-08T03:18:23.259Z,102705.28
2023-02-08T03:20:57.028Z,102709.09
2023-02-08T03:23:31.527Z,102711.44
2023-02-08T03:26:06.806Z,102709.50
2023-02-08T03:28:41.184Z,102697.53
2023-02-08T03:31:16.174Z,102705.63
2023-02-08T03:33:52.838Z,102701.41
2023-02-08T03:36:28.542Z,102712.19
2023-02-08T03:38:57.365Z,102709.06
2023-02-08T03:41:30.647Z,102712.16
2023-02-08T03:44:03.360Z,102723.41
2023-02-08T03:46:35.231Z,102705.22
2023-02-08T03:49:06.332Z,102711.41
2023-02-08T03:51:40.393Z,102720.69
2023-02-08T03:54:13.951Z,102721.50
2023-02-08T03:56:46.748Z,102718.41
2023-02-08T03:59:19.271Z,102717.63
2023-02-08T04:01:52.801Z,102718.44
2023-02-08T04:04:22.338Z,102718.38
2023-02-08T04:06:52.373Z,102709.16
2023-02-08T04:09:20.504Z,102709.91
2023-02-08T04:11:48.580Z,102701.38
2023-02-08T04:14:16.815Z,102702.94
2023-02-08T04:16:44.840Z,102706.00
2023-02-08T04:19:13.180Z,102701.38
2023-02-08T04:21:41.255Z,102703.72
2023-02-08T04:24:10.874Z,102696.75
2023-02-08T04:26:38.938Z,102695.22
2023-02-08T04:29:07.058Z,102696.00
2023-02-08T04:31:35.209Z,102697.94
2023-02-08T04:34:03.818Z,102692.94
2023-02-08T04:36:32.079Z,102692.59
2023-02-08T04:39:00.349Z,102692.19
2023-02-08T04:41:29.937Z,102686.44
2023-02-08T04:43:58.088Z,102697.66
2023-02-08T04:46:26.505Z,102692.25
2023-02-08T04:48:54.623Z,102700.34
2023-02-08T04:51:23.013Z,102695.69
2023-02-08T04:53:51.188Z,102697.25
2023-02-08T04:56:19.714Z,102701.50
2023-02-08T04:58:49.508Z,102696.88
2023-02-08T05:01:17.670Z,102703.81
2023-02-08T05:03:45.944Z,102701.91
2023-02-08T05:06:14.573Z,102701.13
2023-02-08T05:08:42.736Z,102698.44
2023-02-08T05:11:10.837Z,102706.56
2023-02-08T05:13:38.937Z,102709.63
2023-02-08T05:16:08.718Z,102707.69
2023-02-08T05:18:36.924Z,102704.22
2023-02-08T05:21:05.184Z,102699.22
2023-02-08T05:23:33.376Z,102701.91
2023-02-08T05:26:01.573Z,102704.59
2023-02-08T05:28:29.729Z,102704.97
2023-02-08T05:30:58.078Z,102703.84
2023-02-08T05:33:28.295Z,102704.59
2023-02-08T05:35:56.592Z,102699.19
2023-02-08T05:38:24.747Z,102700.34
2023-02-08T05:40:52.961Z,102702.66
2023-02-08T05:43:21.069Z,102695.34
2023-02-08T05:45:51.205Z,102695.72
2023-02-08T05:48:19.547Z,102695.75
2023-02-08T05:50:49.114Z,102704.59
2023-02-08T05:53:17.410Z,102703.81
2023-02-08T05:55:48.490Z,102708.06
2023-02-08T05:58:17.027Z,102707.69
2023-02-08T06:00:45.390Z,102713.09
2023-02-08T06:03:13.736Z,102710.00
2023-02-08T06:05:43.024Z,102717.72
2023-02-08T06:08:12.643Z,102716.56
2023-02-08T06:10:40.898Z,102722.34
2023-02-08T06:13:09.225Z,102718.13
2023-02-08T06:15:37.364Z,102722.38
2023-02-08T06:18:05.947Z,102719.25
2023-02-08T06:20:34.059Z,102717.34
2023-02-08T06:23:02.710Z,102720.81
2023-02-08T06:25:32.341Z,102728.13
2023-02-08T06:28:00.537Z,102719.25
2023-02-08T06:30:29.070Z,102728.56
2023-02-08T06:32:57.526Z,102723.53
2023-02-08T06:35:25.586Z,102721.59
2023-02-08T06:37:54.287Z,102728.53
2023-02-08T06:40:22.460Z,102732.00
2023-02-08T06:42:53.116Z,102730.09
2023-02-08T06:45:21.597Z,102743.19
2023-02-08T06:47:49.679Z,102733.19
2023-02-08T06:50:18.123Z,102735.50
2023-02-08T06:52:46.342Z,102738.59
2023-02-08T06:55:14.485Z,102745.53
2023-02-08T06:57:43.071Z,102737.44
2023-02-08T07:00:14.701Z,102738.56
2023-02-08T07:02:43.149Z,102736.25
2023-02-08T07:05:11.374Z,102745.16
2023-02-08T07:07:39.748Z,102744.75
2023-02-08T07:10:08.643Z,102732.00
2023-02-08T07:12:38.055Z,102732.78
2023-02-08T07:15:06.712Z,102738.59
2023-02-08T07:17:36.108Z,102747.06
2023-02-08T07:20:04.270Z,102741.66
2023-02-08T07:22:32.423Z,102730.84
2023-02-08T07:25:00.941Z,102735.06
2023-02-08T07:27:29.119Z,102733.88
2023-02-08T07:29:57.357Z,102724.19
2023-02-08T07:32:25.678Z,102719.94
2023-02-08T07:34:55.753Z,102726.84
2023-02-08T07:37:23.987Z,102719.00
2023-02-08T07:39:52.564Z,102722.03
2023-02-08T07:42:20.683Z,102717.66
2023-02-08T07:45:00.613Z,102725.69
2023-02-08T07:47:28.728Z,102734.13
2023-02-08T07:49:58.051Z,102729.38
2023-02-08T07:52:26.110Z,102728.94
2023-02-08T07:54:54.274Z,102725.34
2023-02-08T07:57:22.624Z,102718.31
2023-02-08T07:59:52.018Z,102722.47
2023-02-08T08:02:21.576Z,102725.81
2023-02-08T08:04:49.817Z,102723.34
2023-02-08T08:07:19.558Z,102725.56
2023-02-08T08:09:47.528Z,102718.88
2023-02-08T08:12:15.692Z,102730.03
2023-02-08T08:14:43.921Z,102726.00
2023-02-08T08:17:14.449Z,102728.66
2023-02-08T08:19:42.806Z,102728.56
2023-02-08T08:22:11.096Z,102726.81
2023-02-08T08:24:40.565Z,102735.47
2023-02-08T08:27:08.966Z,102730.06
2023-02-08T08:29:38.251Z,102738.06
2023-02-08T08:32:08.716Z,102732.22
2023-02-08T08:34:38.023Z,102725.16
2023-02-08T08:37:06.145Z,102737.91
2023-02-08T08:39:34.341Z,102735.84
2023-02-08T08:42:04.990Z,102731.06
2023-02-08T08:44:33.712Z,102725.34
2023-02-08T08:47:02.118Z,102729.91
2023-02-08T08:49:30.575Z,102736.75
2023-02-08T08:51:59.009Z,102736.63
2023-02-08T08:54:27.445Z,102723.16
2023-02-08T08:56:55.755Z,102724.91
2023-02-08T08:59:25.253Z,102718.16
2023-02-08T09:01:53.490Z,102721.66
2023-02-08T09:04:22.789Z,102718.94
2023-02-08T09:06:51.180Z,102729.53
2023-02-08T09:09:20.113Z,102732.13
2023-02-08T09:11:49.577Z,102728.63
2023-02-08T09:14:17.689Z,102722.22
2023-02-08T09:16:48.224Z,102716.63
2023-02-08T09:19:16.844Z,102713.88
2023-02-08T09:21:45.551Z,102725.53
2023-02-08T09:24:14.391Z,102719.78
2023-02-08T09:26:42.541Z,102717.09
2023-02-08T09:29:10.865Z,102718.63
2023-02-08T09:31:39.838Z,102715.38
2023-02-08T09:34:09.573Z,102729.38
2023-02-08T09:36:40.367Z,102725.03
2023-02-08T09:39:10.992Z,102720.63
2023-02-08T09:42:02.197Z,102726.84
2023-02-08T09:44:35.498Z,102711.91
2023-02-08T09:47:11.915Z,102718.31
2023-02-08T09:49:50.727Z,102714.13
2023-02-08T09:52:25.410Z,102717.25
2023-02-08T09:54:59.325Z,102719.47
2023-02-08T09:57:32.335Z,102715.69
2023-02-08T10:00:05.112Z,102716.56
2023-02-08T10:02:35.176Z,102710.75
2023-02-08T10:05:07.751Z,102707.13
2023-02-08T10:07:36.940Z,102704.25
2023-02-08T10:10:08.320Z,102707.56
2023-02-08T10:12:43.672Z,102706.75
2023-02-08T10:15:27.066Z,102703.16
2023-02-08T10:18:09.680Z,102692.72
2023-02-08T10:20:54.230Z,102703.56
2023-02-08T10:23:35.453Z,102691.00
2023-02-08T10:26:13.536Z,102700.63
2023-02-08T10:28:58.985Z,102700.31
2023-02-08T10:31:41.096Z,102695.72
2023-02-08T10:34:26.217Z,102690.03
2023-02-08T10:36:57.045Z,102678.84
2023-02-08T10:39:30.212Z,102691.13
2023-02-08T10:41:58.519Z,102676.91
2023-02-08T10:44:34.267Z,102680.94
2023-02-08T10:47:13.197Z,102676.22
2023-02-08T10:49:48.539Z,102661.09
2023-02-08T10:52:18.239Z,102669.59
2023-02-08T10:54:46.424Z,102668.47
2023-02-08T10:57:17.798Z,102670.47
2023-02-08T10:59:52.136Z,102661.47
2023-02-08T11:02:23.683Z,102667.34
2023-02-08T11:05:00.195Z,102664.19
2023-02-08T11:07:30.479Z,102663.97
2023-02-08T11:10:22.520Z,102661.44
2023-02-08T11:12:56.841Z,102657.69
2023-02-08T11:15:28.208Z,102655.50
2023-02-08T11:18:00.676Z,102647.94
2023-02-08T11:20:34.740Z,102637.69
2023-02-08T11:23:05.853Z,102640.00
2023-02-08T11:25:37.843Z,102636.75
2023-02-08T11:28:23.805Z,102638.78
2023-02-08T11:31:01.090Z,102629.66
2023-02-08T11:33:30.434Z,102621.75
2023-02-08T11:36:03.853Z,102618.72
2023-02-08T11:38:37.748Z,102611.75
2023-02-08T11:41:16.134Z,102609.00
2023-02-08T11:43:45.021Z,102602.59
2023-02-08T11:46:13.386Z,102609.94
2023-02-08T11:48:46.485Z,102600.22
2023-02-08T11:51:26.287Z,102597.50
2023-02-08T11:53:57.006Z,102586.22
2023-02-08T11:56:27.844Z,102596.84
2023-02-08T11:59:06.683Z,102584.69
2023-02-08T12:01:36.757Z,102584.69
2023-02-08T12:04:09.026Z,102592.81
2023-02-08T12:06:56.566Z,102585.97
2023-02-08T12:09:44.589Z,102574.50
2023-02-08T12:12:24.789Z,102584.75
2023-02-08T12:15:04.188Z,102581.38
2023-02-08T12:17:48.471Z,102575.00
2023-02-08T12:20:33.481Z,102565.50
2023-02-08T12:23:21.674Z,102567.47
2023-02-08T12:26:00.035Z,102558.44
2023-02-08T12:28:38.307Z,102559.94
2023-02-08T12:31:14.694Z,102552.13
2023-02-08T12:33:55.780Z,102549.78
2023-02-08T12:36:33.095Z,102550.78
2023-02-08T12:39:27.964Z,102541.25
2023-02-08T12:42:20.110Z,102533.63
2023-02-08T12:45:04.632Z,102539.16
2023-02-08T12:47:58.205Z,102534.03
2023-02-08T12:50:40.739Z,102521.94
2023-02-08T12:53:19.897Z,102524.84
2023-02-08T12:55:49.919Z,102509.91
2023-02-08T12:58:30.720Z,102512.50
2023-02-08T13:01:03.407Z,102506.56
2023-02-08T13:03:45.183Z,102506.41
2023-02-08T13:06:19.621Z,102507.38
2023-02-08T13:08:53.872Z,102502.56
2023-02-08T13:11:29.222Z,102502.16
2023-02-08T13:14:04.010Z,102505.50
2023-02-08T13:16:36.670Z,102493.69
2023-02-08T13:19:22.449Z,102490.16
2023-02-08T13:21:52.753Z,102495.25
2023-02-08T13:24:28.690Z,102486.41
2023-02-08T13:26:57.315Z,102479.22
2023-02-08T13:29:29.302Z,102484.16
2023-02-08T13:32:01.577Z,102482.38
2023-02-08T13:34:36.228Z,102466.22
2023-02-08T13:37:16.717Z,102469.16
2023-02-08T13:39:59.864Z,102463.78
2023-02-08T13:42:31.453Z,102464.19
2023-02-08T13:45:03.026Z,102459.16
2023-02-08T13:47:33.762Z,102454.31
2023-02-08T13:50:07.586Z,102452.13
2023-02-08T13:52:53.653Z,102454.72
2023-02-08T13:55:53.583Z,102460.09
2023-02-08T13:58:36.272Z,102451.22
2023-02-08T14:01:16.979Z,102449.66
2023-02-08T14:03:45.942Z,102450.03
2023-02-08T14:06:22.593Z,102447.88
2023-02-08T14:08:56.090Z,102445.13
2023-02-08T14:11:37.818Z,102442.53
2023-02-08T14:14:14.758Z,102442.00
2023-02-08T14:16:46.247Z,102445.13
2023-02-08T14:19:25.393Z,102435.06
2023-02-08T14:22:03.654Z,102431.13
2023-02-08T14:24:34.511Z,102424.75
2023-02-08T14:27:19.831Z,102432.00
2023-02-08T14:29:58.285Z,102423.66
2023-02-08T14:32:31.040Z,102422.06
2023-02-08T14:35:03.525Z,102428.03
2023-02-08T14:37:33.704Z,102429.91
2023-02-08T14:40:40.911Z,102418.22
2023-02-08T14:43:31.973Z,102421.19
2023-02-08T14:46:43.149Z,102416.53
2023-02-08T14:49:14.664Z,102410.31
2023-02-08T14:51:46.891Z,102418.09
2023-02-08T14:54:22.546Z,102398.03
2023-02-08T14:56:58.736Z,102391.28
2023-02-08T14:59:31.051Z,102393.44
2023-02-08T15:02:02.578Z,102391.88
2023-02-08T15:04:32.290Z,102398.81
2023-02-08T15:07:17.434Z,102393.91
2023-02-08T15:09:47.242Z,102392.88
2023-02-08T15:12:23.529Z,102397.22
2023-02-08T15:14:55.049Z,102390.84
2023-02-08T15:17:34.169Z,102389.91
2023-02-08T15:20:08.511Z,102386.91
2023-02-08T15:22:39.827Z,102387.00
2023-02-08T15:25:26.684Z,102379.06
2023-02-08T15:27:57.805Z,102387.88
2023-02-08T15:30:29.409Z,102383.84
2023-02-08T15:32:59.973Z,102387.38
2023-02-08T15:35:32.788Z,102388.28
2023-02-08T15:38:02.993Z,102391.78
2023-02-08T15:40:34.228Z,102378.69
2023-02-08T15:43:13.979Z,102375.66
2023-02-08T15:45:42.138Z,102373.38
2023-02-08T15:48:12.644Z,102371.63
2023-02-08T15:50:42.808Z,102364.63
2023-02-08T15:53:16.056Z,102382.16
2023-02-08T15:55:50.090Z,102371.94
2023-02-08T15:58:28.839Z,102380.47
2023-02-08T16:01:00.716Z,102374.69
2023-02-08T16:03:31.038Z,102375.34
2023-02-08T16:06:05.857Z,102379.16
2023-02-08T16:08:36.846Z,102383.41
2023-02-08T16:11:09.988Z,102396.66
2023-02-08T16:13:42.549Z,102389.50
2023-02-08T16:16:19.822Z,102393.31
2023-02-08T16:18:50.902Z,102397.91
2023-02-08T16:21:27.140Z,102392.34
2023-02-08T16:23:58.118Z,102403.91
2023-02-08T16:26:28.961Z,102393.09
2023-02-08T16:29:00.629Z,102393.25
2023-02-08T16:31:33.167Z,102398.25
2023-02-08T16:34:04.589Z,102395.00
2023-02-08T16:36:38.652Z,102401.16
2023-02-08T16:39:46.813Z,102405.91
2023-02-08T16:42:29.536Z,102399.28
2023-02-08T16:45:18.116Z,102404.44
2023-02-08T16:47:53.700Z,102411.00
2023-02-08T16:50:24.560Z,102412.59
2023-02-08T16:52:57.290Z,102404.88
2023-02-08T16:55:32.458Z,102408.22
2023-02-08T16:58:02.514Z,102410.22
2023-02-08T17:00:33.714Z,102404.06
2023-02-08T17:03:02.580Z,102406.13
2023-02-08T17:05:33.390Z,102409.44
2023-02-08T17:08:07.045Z,102409.72
2023-02-08T17:10:37.604Z,102407.47
2023-02-08T17:13:20.005Z,102414.72
2023-02-08T17:15:51.110Z,102411.78
2023-02-08T17:18:20.363Z,102406.72
2023-02-08T17:20:50.688Z,102408.63
2023-02-08T17:23:21.708Z,102415.53
2023-02-08T17:25:50.112Z,102410.81
2023-02-08T17:28:20.426Z,102408.13
2023-02-08T17:30:50.800Z,102411.53
2023-02-08T17:33:19.561Z,102419.81
2023-02-08T17:35:49.210Z,102412.91
2023-02-08T17:38:17.757Z,102411.81
2023-02-08T17:40:48.013Z,102416.38
2023-02-08T17:43:16.572Z,102409.00
2023-02-08T17:45:45.970Z,102408.88
2023-02-08T17:48:14.979Z,102406.00
2023-02-08T17:50:47.026Z,102406.94
2023-02-08T17:53:16.068Z,102407.13
2023-02-08T17:55:48.453Z,102400.84
2023-02-08T17:58:17.696Z,102406.47
2023-02-08T18:00:46.312Z,102406.13
2023-02-08T18:03:17.402Z,102415.66
2023-02-08T18:05:45.901Z,102408.41
2023-02-08T18:08:14.769Z,102408.69
2023-02-08T18:10:43.499Z,102404.28
2023-02-08T18:13:13.872Z,102399.69
2023-02-08T18:15:42.707Z,102409.72
2023-02-08T18:18:15.404Z,102410.06
2023-02-08T18:20:45.459Z,102411.81
2023-02-08T18:23:14.307Z,102410.44
2023-02-08T18:25:42.832Z,102404.41
2023-02-08T18:28:15.145Z,102399.13
2023-02-08T18:30:50.423Z,102396.03
2023-02-08T18:33:18.640Z,102386.78
2023-02-08T18:35:50.990Z,102391.19
2023-02-08T18:38:19.332Z,102400.59
2023-02-08T18:40:47.832Z,102396.84
2023-02-08T18:43:16.089Z,102396.34
2023-02-08T18:45:48.708Z,102391.34
2023-02-08T18:48:19.603Z,102398.03
2023-02-08T18:50:55.811Z,102391.75
2023-02-08T18:53:27.206Z,102392.59
2023-02-08T18:55:56.814Z,102395.16
2023-02-08T18:58:27.569Z,102401.09
2023-02-08T19:01:06.773Z,102397.94
2023-02-08T19:03:36.418Z,102384.44
2023-02-08T19:06:06.549Z,102398.88
2023-02-08T19:08:37.584Z,102395.19
2023-02-08T19:11:07.565Z,102399.16
2023-02-08T19:13:36.128Z,102394.97
2023-02-08T19:16:07.159Z,102396.31
2023-02-08T19:18:36.286Z,102399.84
2023-02-08T19:21:05.831Z,102398.94
2023-02-08T19:23:34.626Z,102398.72
2023-02-08T19:26:03.774Z,102399.69
2023-02-08T19:28:33.602Z,102401.00
2023-02-08T19:31:05.969Z,102399.94
2023-02-08T19:33:34.802Z,102398.41
2023-02-08T19:36:08.252Z,102395.22
2023-02-08T19:38:38.913Z,102396.78
2023-02-08T19:41:10.820Z,102398.69
2023-02-08T19:43:40.006Z,102397.81
2023-02-08T19:46:11.879Z,102399.63
2023-02-08T19:48:40.393Z,102388.47
2023-02-08T19:51:08.663Z,102395.69
2023-02-08T19:53:37.243Z,102397.22
2023-02-08T19:56:07.252Z,102401.13
2023-02-08T19:58:37.458Z,102397.66
2023-02-08T20:01:09.350Z,102388.44
2023-02-08T20:03:39.202Z,102386.84
2023-02-08T20:06:14.431Z,102387.13
2023-02-08T20:08:42.900Z,102379.31
2023-02-08T20:11:19.210Z,102374.34
2023-02-08T20:13:47.974Z,102385.69
2023-02-08T20:16:16.754Z,102383.56
2023-02-08T20:18:46.629Z,102381.28
2023-02-08T20:21:15.086Z,102379.28
2023-02-08T20:23:43.615Z,102382.84
2023-02-08T20:26:13.991Z,102376.50
2023-02-08T20:28:44.457Z,102379.63
2023-02-08T20:31:15.749Z,102380.03
2023-02-08T20:33:46.389Z,102383.03
2023-02-08T20:36:17.855Z,102377.41
2023-02-08T20:38:46.321Z,102374.06
2023-02-08T20:41:15.833Z,102373.06
2023-02-08T20:43:45.698Z,102366.53
2023-02-08T20:46:17.175Z,102374.03
2023-02-08T20:48:47.196Z,102381.81
2023-02-08T20:51:18.017Z,102379.91
2023-02-08T20:53:47.926Z,102383.09
2023-02-08T20:56:18.131Z,102387.41
2023-02-08T20:58:46.747Z,102383.53
2023-02-08T21:01:18.697Z,102374.66
2023-02-08T21:03:48.808Z,102376.00
2023-02-08T21:06:20.109Z,102372.59
2023-02-08T21:08:52.173Z,102371.34
2023-02-08T21:11:22.495Z,102380.06
2023-02-08T21:13:51.136Z,102367.41
2023-02-08T21:16:20.327Z,102377.56
2023-02-08T21:18:49.982Z,102375.81
2023-02-08T21:21:19.099Z,102377.94
2023-02-08T21:23:47.749Z,102377.63
2023-02-08T21:26:17.865Z,102377.50
2023-02-08T21:28:47.000Z,102372.03
2023-02-08T21:31:17.467Z,102373.13
2023-02-08T21:33:46.546Z,102368.91
2023-02-08T21:36:17.968Z,102362.34
2023-02-08T21:38:46.473Z,102363.13
2023-02-08T21:41:16.622Z,102354.28
2023-02-08T21:43:45.045Z,102356.97
2023-02-08T21:46:13.961Z,102357.16
2023-02-08T21:49:00.164Z,102349.84
2023-02-08T21:51:47.138Z,102344.84
2023-02-08T21:54:35.723Z,102342.75
2023-02-08T21:57:06.247Z,102346.47
2023-02-08T21:59:36.935Z,102348.25
2023-02-08T22:02:06.729Z,102346.88
2023-02-08T22:04:35.039Z,102341.47
2023-02-08T22:07:05.453Z,102343.59
2023-02-08T22:09:35.866Z,102340.28
2023-02-08T22:12:04.135Z,102333.09
2023-02-08T22:14:34.922Z,102331.94
2023-02-08T22:17:03.500Z,102321.47
2023-02-08T22:19:31.796Z,102324.34
2023-02-08T22:22:00.097Z,102332.34
2023-02-08T22:24:29.637Z,102332.78
2023-02-08T22:26:57.825Z,102323.47
2023-02-08T22:29:25.985Z,102330.47
2023-02-08T22:31:54.400Z,102326.16
2023-02-08T22:34:22.570Z,102339.56
2023-02-08T22:36:50.944Z,102326.59
2023-02-08T22:39:18.981Z,102331.16
2023-02-08T22:41:48.763Z,102325.72
2023-02-08T22:44:16.945Z,102327.53
2023-02-08T22:46:45.163Z,102318.16
2023-02-08T22:49:13.433Z,102319.25
2023-02-08T22:51:41.729Z,102323.28
2023-02-08T22:54:09.779Z,102320.56
2023-02-08T22:56:38.159Z,102325.31
2023-02-08T22:59:07.663Z,102320.28
2023-02-08T23:01:35.842Z,102318.47
2023-02-08T23:04:04.764Z,102314.38
2023-02-08T23:06:33.293Z,102321.69
2023-02-08T23:09:01.718Z,102317.44
2023-02-08T23:11:30.114Z,102309.06
2023-02-08T23:13:58.273Z,102306.50
2023-02-08T23:16:28.049Z,102302.34
2023-02-08T23:18:56.180Z,102301.78
2023-02-08T23:21:24.367Z,102301.28
2023-02-08T23:23:52.457Z,102304.34
2023-02-08T23:26:22.047Z,102310.41
2023-02-08T23:28:51.109Z,102309.88
2023-02-08T23:31:20.065Z,102309.66
2023-02-08T23:33:50.405Z,102314.66
2023-02-08T23:36:20.784Z,102325.59
2023-02-08T23:38:49.173Z,102323.41
2023-02-08T23:41:20.275Z,102318.91
2023-02-08T23:43:48.522Z,102322.56
2023-02-08T23:46:19.597Z,102314.69
2023-02-08T23:48:49.635Z,102320.75
2023-02-08T23:51:20.010Z,102311.91
2023-02-08T23:53:49.103Z,102307.72
2023-02-08T23:56:20.017Z,102307.47
2023-02-08T23:58:51.928Z,102323.84
